Main page


Airports :

Siegen, Germany

Siegerland Airport

latitude: 50-42-28N, longitude: 008-04-59E, elevation: 602 m

Current weather observation

The report was made 11 minutes ago, at 06:50 UTC
Wind 6 kt from the Northwest
Temperature -3°C
Humidity 58%
Pressure 1025 hPa
Visibility 10 km or more
no clouds below 1500 m and no cumulonimbus

METAR: EDGS 210650Z 31006KT CAVOK M03/M10 Q1025

Time: 08:01 (07:01 UTC)


The report was made 14 hours and 1 minutes ago, at 17:00 UTC
Forecast valid from 20 at 18 UTC to 21 at 03 UTC
Wind 10 kt from the North
Visibility 10 km or more
Few clouds at a height of 4500 ft
from 21 at 00 UTC to 21 at 03 UTC
Wind 5 kt from the North

TAF: EDGS 201700Z 2018/2103 01010KT 9999 FEW045 BECMG 2100/2103 01005KT

Weather observations and forecasts of more than 4000 airports (METAR and TAF reports).

The available stations are represented by yellow and red dots on the map.

Hover mouse over dot to see the name of the station.

Then click to see weather observations and forecasts.

To change the map : click on the green buttons with a black cross to zoom in, on the green button with a dash to zoom out, or on the green arrows for adjacent maps.